Main page
METAR-TAF:

METAR-TAF

Airports :

RAF Valley

Valley, Wales

latitude: 53-15N, longitude: 004-32W, elevation: 1 m

Current weather observation

The report was made 19 minutes ago, at 07:20 UTC
Wind 18 kt from the Northwest
Temperature 11°C
Humidity 66%
Pressure 999 hPa
Visibility 10 km or more
Scattered clouds at a height of 2500 ft
Scattered clouds at a height of 12000 ft

METAR: EGOV 050720Z 32018KT 9999 SCT025 SCT120 11/05 Q0999 TEMPO 7000 SHRA SCT023TCU RMK BLU TEMPO WHT

Time: 08:39 (07:39 UTC)

Forecast

The report was made 2 hours and 17 minutes ago, at 05:22 UTC
Forecast valid from 05 at 07 UTC to 05 at 15 UTC
Wind 17 kt from the Northwest
Visibility 10 km or more
Few clouds at a height of 2300 ft
Probability 30% :
Temporary
from 05 at 07 UTC to 05 at 15 UTC
Visibility: 7000 m
Scattered clouds at a height of 2300 ft, Towering cumulus.
rain showers

TAF: EGOV 050522Z 0507/0515 32017KT 9999 FEW023 PROB30 TEMPO 0507/0515 7000 SHRA SCT023TCU

Weather observations and forecasts of more than 4000 airports (METAR and TAF reports).

The available stations are represented by yellow and red dots on the map.

Hover mouse over dot to see the name of the station.

Then click to see weather observations and forecasts.

To change the map : click on the green buttons with a black cross to zoom in, on the green button with a dash to zoom out, or on the green arrows for adjacent maps.


METAR-TAF: